createdAt,value
2019-03-23T00:00:47.352Z,42.50
2019-03-23T00:03:18.274Z,42.50
2019-03-23T00:05:52.217Z,42.50
2019-03-23T00:08:23.285Z,42.50
2019-03-23T00:10:54.361Z,42.50
2019-03-23T00:13:25.556Z,42.50
2019-03-23T00:15:57.866Z,42.50
2019-03-23T00:18:28.826Z,42.60
2019-03-23T00:20:59.608Z,42.60
2019-03-23T00:23:30.507Z,42.70
2019-03-23T00:26:01.226Z,42.50
2019-03-23T00:28:32.198Z,42.50
2019-03-23T00:31:02.939Z,42.40
2019-03-23T00:33:33.816Z,42.30
2019-03-23T00:36:04.594Z,42.40
2019-03-23T00:38:35.513Z,42.40
2019-03-23T00:41:06.314Z,42.50
2019-03-23T00:43:38.518Z,42.40
2019-03-23T00:46:09.344Z,42.90
2019-03-23T00:48:40.475Z,43.00
2019-03-23T00:51:11.305Z,43.00
2019-03-23T00:53:42.126Z,42.90
2019-03-23T00:56:12.931Z,43.00
2019-03-23T00:58:43.714Z,43.20
2019-03-23T01:01:14.590Z,43.20
2019-03-23T01:03:46.423Z,43.30
2019-03-23T01:06:17.200Z,43.20
2019-03-23T01:08:48.171Z,43.30
2019-03-23T01:11:18.930Z,43.40
2019-03-23T01:13:49.870Z,43.50
2019-03-23T01:16:20.701Z,43.50
2019-03-23T01:18:51.653Z,43.50
2019-03-23T01:21:26.026Z,43.50
2019-03-23T01:23:56.910Z,43.60
2019-03-23T01:26:27.750Z,43.60
2019-03-23T01:28:58.661Z,43.50
2019-03-23T01:31:29.487Z,43.70
2019-03-23T01:34:04.249Z,43.70
2019-03-23T01:36:37.210Z,43.60
2019-03-23T01:39:08.487Z,43.60
2019-03-23T01:41:39.473Z,43.70
2019-03-23T01:44:10.237Z,43.90
2019-03-23T01:46:41.137Z,44.10
2019-03-23T01:49:11.941Z,44.60
2019-03-23T01:51:42.766Z,44.60
2019-03-23T01:54:13.581Z,44.90
2019-03-23T01:56:44.334Z,44.90
2019-03-23T01:59:15.154Z,44.70
2019-03-23T02:01:45.974Z,44.60
2019-03-23T02:04:16.746Z,44.60
2019-03-23T02:06:47.507Z,44.80
2019-03-23T02:09:18.427Z,44.90
2019-03-23T02:11:49.319Z,45.00
2019-03-23T02:14:20.220Z,45.50
2019-03-23T02:16:51.017Z,45.40
2019-03-23T02:19:21.927Z,46.20
2019-03-23T02:21:52.777Z,45.90
2019-03-23T02:24:23.584Z,45.90
2019-03-23T02:26:54.309Z,45.80
2019-03-23T02:29:25.123Z,46.20
2019-03-23T02:31:55.931Z,46.40
2019-03-23T02:34:26.820Z,46.60
2019-03-23T02:36:57.727Z,46.50
2019-03-23T02:39:29.563Z,46.90
2019-03-23T02:42:00.409Z,46.90
2019-03-23T02:44:31.327Z,47.00
2019-03-23T02:47:04.348Z,46.90
2019-03-23T02:49:37.093Z,46.80
2019-03-23T02:52:07.969Z,46.90
2019-03-23T02:54:40.912Z,46.80
2019-03-23T02:57:11.690Z,46.70
2019-03-23T02:59:42.565Z,46.50
2019-03-23T03:02:14.409Z,46.60
2019-03-23T03:04:45.225Z,46.50
2019-03-23T03:07:15.932Z,46.80
2019-03-23T03:09:46.790Z,46.70
2019-03-23T03:12:17.566Z,46.90
2019-03-23T03:14:48.554Z,46.90
2019-03-23T03:17:19.358Z,47.10
2019-03-23T03:19:50.201Z,47.10
2019-03-23T03:22:21.033Z,47.30
2019-03-23T03:24:51.917Z,47.30
2019-03-23T03:27:22.707Z,47.30
2019-03-23T03:29:53.581Z,47.30
2019-03-23T03:32:24.355Z,47.20
2019-03-23T03:34:55.225Z,47.00
2019-03-23T03:37:25.959Z,47.00
2019-03-23T03:39:56.914Z,47.10
2019-03-23T03:42:27.659Z,47.10
2019-03-23T03:44:58.456Z,47.10
2019-03-23T03:47:29.213Z,47.30
2019-03-23T03:50:00.035Z,47.40
2019-03-23T03:52:30.848Z,47.70
2019-03-23T03:55:01.600Z,47.70
2019-03-23T03:57:32.569Z,47.60
2019-03-23T04:00:03.337Z,47.70
2019-03-23T04:02:35.412Z,47.60
2019-03-23T04:05:07.950Z,47.50
2019-03-23T04:07:38.805Z,47.60
2019-03-23T04:10:15.275Z,47.30
2019-03-23T04:12:46.047Z,47.30
2019-03-23T04:15:16.847Z,47.00
2019-03-23T04:17:50.033Z,46.80
2019-03-23T04:20:20.932Z,46.80
2019-03-23T04:22:52.806Z,46.80
2019-03-23T04:25:23.706Z,46.80
2019-03-23T04:27:54.488Z,47.20
2019-03-23T04:30:25.387Z,47.30
2019-03-23T04:32:56.234Z,47.40
2019-03-23T04:35:27.053Z,47.20
2019-03-23T04:37:57.787Z,47.20
2019-03-23T04:40:28.728Z,47.40
2019-03-23T04:42:59.573Z,47.40
2019-03-23T04:45:30.394Z,47.30
2019-03-23T04:48:01.260Z,47.50
2019-03-23T04:50:32.140Z,47.60
2019-03-23T04:53:02.968Z,47.60
2019-03-23T04:55:33.835Z,48.00
2019-03-23T04:58:04.560Z,48.20
2019-03-23T05:00:35.486Z,48.00
2019-03-23T05:03:06.298Z,47.80
2019-03-23T05:05:37.111Z,47.80
2019-03-23T05:08:07.918Z,48.00
2019-03-23T05:10:38.758Z,48.20
2019-03-23T05:13:09.568Z,48.20
2019-03-23T05:15:40.409Z,48.40
2019-03-23T05:18:11.582Z,48.50
2019-03-23T05:20:42.393Z,48.60
2019-03-23T05:23:13.367Z,48.70
2019-03-23T05:25:45.415Z,48.70
2019-03-23T05:28:21.447Z,48.60
2019-03-23T05:30:54.694Z,48.70
2019-03-23T05:33:25.505Z,48.90
2019-03-23T05:35:56.322Z,48.40
2019-03-23T05:38:27.102Z,48.10
2019-03-23T05:40:57.995Z,47.80
2019-03-23T05:43:28.769Z,47.40
2019-03-23T05:45:59.590Z,47.00
2019-03-23T05:48:30.410Z,46.70
2019-03-23T05:51:01.235Z,46.20
2019-03-23T05:53:32.054Z,45.00
2019-03-23T05:56:02.883Z,44.80
2019-03-23T05:58:36.669Z,44.40
2019-03-23T06:01:06.358Z,44.10
2019-03-23T06:03:39.200Z,43.60
2019-03-23T06:06:13.203Z,43.20
2019-03-23T06:08:54.232Z,42.50
2019-03-23T06:11:16.550Z,41.90
2019-03-23T06:13:50.032Z,41.50
2019-03-23T06:16:21.549Z,41.10
2019-03-23T06:18:52.534Z,40.90
2019-03-23T06:21:24.327Z,40.30
2019-03-23T06:23:55.222Z,39.70
2019-03-23T06:26:26.053Z,39.00
2019-03-23T06:28:57.004Z,38.60
2019-03-23T06:31:27.781Z,38.00
2019-03-23T06:33:59.590Z,37.40
2019-03-23T06:36:30.354Z,37.10
2019-03-23T06:39:05.359Z,36.70
2019-03-23T06:41:33.690Z,36.60
2019-03-23T06:44:04.535Z,36.40
2019-03-23T06:46:35.298Z,36.40
2019-03-23T06:49:06.047Z,36.30
2019-03-23T06:51:36.941Z,36.10
2019-03-23T06:54:07.765Z,35.80
2019-03-23T06:56:38.578Z,35.50
2019-03-23T06:59:09.414Z,35.40
2019-03-23T07:01:40.123Z,35.10
2019-03-23T07:04:11.036Z,34.90
2019-03-23T07:06:41.798Z,34.20
2019-03-23T07:09:16.353Z,33.90
2019-03-23T07:11:45.078Z,33.30
2019-03-23T07:14:16.001Z,33.30
2019-03-23T07:16:46.826Z,33.10
2019-03-23T07:19:17.635Z,32.80
2019-03-23T07:21:48.398Z,32.80
2019-03-23T07:24:19.306Z,32.70
2019-03-23T07:26:50.099Z,32.60
2019-03-23T07:29:20.997Z,32.40
2019-03-23T07:31:51.945Z,31.80
2019-03-23T07:34:22.824Z,32.00
2019-03-23T07:36:55.255Z,31.70
2019-03-23T07:39:28.234Z,31.90
2019-03-23T07:41:58.898Z,31.40
2019-03-23T07:44:33.150Z,31.30
2019-03-23T07:47:03.960Z,30.60
2019-03-23T07:49:34.833Z,30.30
2019-03-23T07:52:05.662Z,30.10
2019-03-23T07:54:36.516Z,30.30
2019-03-23T07:57:07.339Z,30.00
2019-03-23T07:59:38.137Z,29.70
2019-03-23T08:02:08.881Z,29.50
2019-03-23T08:04:39.714Z,29.60
2019-03-23T08:07:10.531Z,29.60
2019-03-23T08:09:41.362Z,29.50
2019-03-23T08:12:12.105Z,29.10
2019-03-23T08:14:42.938Z,29.00
2019-03-23T08:17:13.722Z,28.60
2019-03-23T08:19:44.562Z,28.40
2019-03-23T08:22:15.312Z,28.40
2019-03-23T08:24:46.086Z,27.90
2019-03-23T08:27:16.851Z,27.80
2019-03-23T08:29:47.686Z,27.70
2019-03-23T08:32:18.591Z,27.40
2019-03-23T08:34:49.470Z,27.20
2019-03-23T08:37:20.246Z,26.80
2019-03-23T08:39:51.277Z,26.50
2019-03-23T08:42:22.170Z,26.20
2019-03-23T08:44:53.046Z,26.30
2019-03-23T08:47:24.530Z,25.90
2019-03-23T08:49:55.436Z,25.90
2019-03-23T08:52:51.883Z,25.80
2019-03-23T08:55:22.701Z,25.60
2019-03-23T08:57:53.933Z,25.30
2019-03-23T09:00:26.048Z,25.00
2019-03-23T09:02:58.447Z,24.70
2019-03-23T09:05:31.405Z,24.50
2019-03-23T09:08:02.627Z,24.10
2019-03-23T09:10:33.644Z,24.40
2019-03-23T09:13:04.560Z,23.70
2019-03-23T09:15:35.732Z,23.10
2019-03-23T09:18:06.642Z,23.10
2019-03-23T09:20:37.659Z,22.90
2019-03-23T09:23:10.841Z,22.80
2019-03-23T09:25:41.794Z,22.60
2019-03-23T09:28:12.659Z,22.50
2019-03-23T09:30:43.405Z,22.70
2019-03-23T09:33:15.298Z,22.40
2019-03-23T09:35:46.117Z,22.50
2019-03-23T09:38:17.058Z,22.10
2019-03-23T09:40:47.846Z,22.10
2019-03-23T09:43:18.804Z,22.00
2019-03-23T09:45:49.665Z,22.00
2019-03-23T09:48:21.679Z,22.20
2019-03-23T09:50:52.572Z,22.10
2019-03-23T09:53:23.422Z,21.90
2019-03-23T09:55:54.190Z,21.80
2019-03-23T09:58:25.050Z,21.40
2019-03-23T10:00:56.006Z,21.40
2019-03-23T10:03:26.964Z,21.30
2019-03-23T10:05:57.758Z,21.30
2019-03-23T10:08:28.749Z,21.10
2019-03-23T10:10:59.514Z,20.80
2019-03-23T10:13:31.846Z,20.60
2019-03-23T10:16:02.772Z,20.50
2019-03-23T10:18:33.727Z,20.30
2019-03-23T10:21:06.177Z,20.10
2019-03-23T10:23:37.038Z,19.90
2019-03-23T10:26:09.096Z,19.70
2019-03-23T10:28:55.585Z,19.40
2019-03-23T10:31:27.555Z,19.00
2019-03-23T10:33:58.610Z,18.60
2019-03-23T10:36:29.892Z,18.70
2019-03-23T10:39:00.801Z,18.90
2019-03-23T10:41:33.227Z,19.00
2019-03-23T10:44:04.073Z,19.00
2019-03-23T10:46:35.191Z,19.00
2019-03-23T10:49:07.160Z,19.00
2019-03-23T10:51:37.952Z,19.10
2019-03-23T10:54:09.023Z,19.30
2019-03-23T10:56:39.974Z,19.60
2019-03-23T10:59:11.174Z,19.50
2019-03-23T11:01:41.976Z,19.60
2019-03-23T11:04:13.135Z,19.40
2019-03-23T11:06:44.022Z,19.40
2019-03-23T11:09:14.998Z,19.60
2019-03-23T11:11:45.964Z,19.40
2019-03-23T11:14:16.928Z,18.90
2019-03-23T11:16:47.697Z,18.80
2019-03-23T11:19:18.930Z,18.60
2019-03-23T11:21:49.876Z,18.20
2019-03-23T11:24:20.950Z,18.30
2019-03-23T11:26:51.755Z,18.30
2019-03-23T11:29:22.597Z,18.10
2019-03-23T11:31:53.957Z,18.00
2019-03-23T11:34:24.989Z,18.20
2019-03-23T11:36:55.918Z,18.60
2019-03-23T11:39:28.677Z,18.70
2019-03-23T11:41:59.517Z,18.90
2019-03-23T11:44:30.372Z,18.70
2019-03-23T11:47:01.364Z,18.30
2019-03-23T11:49:32.291Z,18.60
2019-03-23T11:52:03.218Z,18.60
2019-03-23T11:54:35.122Z,18.60
2019-03-23T11:57:06.060Z,18.60
2019-03-23T11:59:37.009Z,18.40
2019-03-23T12:02:08.966Z,18.40
2019-03-23T12:04:45.742Z,18.50
2019-03-23T12:07:16.660Z,18.40
2019-03-23T12:09:47.571Z,18.40
2019-03-23T12:12:18.412Z,18.10
2019-03-23T12:14:49.402Z,18.40
2019-03-23T12:17:20.307Z,18.60
2019-03-23T12:19:51.166Z,18.40
2019-03-23T12:22:21.921Z,18.50
2019-03-23T12:24:52.854Z,18.80
2019-03-23T12:27:24.757Z,18.70
2019-03-23T12:30:03.117Z,18.40
2019-03-23T12:32:28.203Z,18.40
2019-03-23T12:34:59.170Z,18.40
2019-03-23T12:37:29.949Z,18.20
2019-03-23T12:40:00.851Z,18.10
2019-03-23T12:42:31.758Z,18.20
2019-03-23T12:45:02.628Z,18.10
2019-03-23T12:47:33.843Z,17.70
2019-03-23T12:50:05.101Z,17.70
2019-03-23T12:52:36.002Z,17.50
2019-03-23T12:55:07.004Z,17.50
2019-03-23T12:57:37.919Z,17.50
2019-03-23T13:00:10.821Z,17.40
2019-03-23T13:02:41.758Z,17.30
2019-03-23T13:05:12.651Z,17.20
2019-03-23T13:07:43.738Z,16.90
2019-03-23T13:10:14.731Z,16.80
2019-03-23T13:12:45.722Z,16.80
2019-03-23T13:15:16.966Z,16.70
2019-03-23T13:17:47.798Z,16.40
2019-03-23T13:20:18.761Z,16.80
2019-03-23T13:22:49.794Z,16.80
2019-03-23T13:25:20.686Z,16.60
2019-03-23T13:27:51.578Z,16.40
2019-03-23T13:30:22.576Z,16.30
2019-03-23T13:32:53.383Z,16.40
2019-03-23T13:35:24.266Z,16.40
2019-03-23T13:37:55.273Z,16.30
2019-03-23T13:40:26.882Z,16.40
2019-03-23T13:42:57.760Z,16.50
2019-03-23T13:45:28.774Z,16.50
2019-03-23T13:47:59.560Z,16.50
2019-03-23T13:50:33.241Z,16.50
2019-03-23T13:53:04.167Z,16.60
2019-03-23T13:55:35.077Z,16.60
2019-03-23T13:58:12.986Z,16.40
2019-03-23T14:00:43.807Z,16.20
2019-03-23T14:03:14.739Z,16.40
2019-03-23T14:05:48.684Z,16.70
2019-03-23T14:08:19.741Z,16.90
2019-03-23T14:10:50.890Z,16.80
2019-03-23T14:13:22.093Z,16.80
2019-03-23T14:15:52.962Z,16.80
2019-03-23T14:18:24.468Z,16.80
2019-03-23T14:20:55.400Z,16.70
2019-03-23T14:23:26.298Z,16.80
2019-03-23T14:25:57.090Z,16.50
2019-03-23T14:28:27.909Z,16.70
2019-03-23T14:30:58.801Z,16.90
2019-03-23T14:33:29.635Z,16.90
2019-03-23T14:36:00.557Z,17.10
2019-03-23T14:38:31.360Z,17.20
2019-03-23T14:41:02.245Z,17.30
2019-03-23T14:43:33.093Z,17.30
2019-03-23T14:46:03.924Z,17.20
2019-03-23T14:48:38.862Z,17.30
2019-03-23T14:51:10.321Z,17.40
2019-03-23T14:53:41.186Z,17.50
2019-03-23T14:56:11.998Z,17.50
2019-03-23T14:58:42.837Z,17.60
2019-03-23T15:01:14.623Z,17.80
2019-03-23T15:03:45.405Z,18.00
2019-03-23T15:06:16.230Z,18.10
2019-03-23T15:08:47.185Z,18.50
2019-03-23T15:11:18.049Z,19.00
2019-03-23T15:13:49.001Z,20.10
2019-03-23T15:16:19.806Z,20.20
2019-03-23T15:18:50.706Z,20.70
2019-03-23T15:21:21.520Z,21.30
2019-03-23T15:23:52.623Z,21.90
2019-03-23T15:26:28.368Z,22.70
2019-03-23T15:29:01.212Z,23.40
2019-03-23T15:31:32.201Z,23.90
2019-03-23T15:34:03.733Z,24.50
2019-03-23T15:36:35.111Z,25.10
2019-03-23T15:39:07.532Z,25.20
2019-03-23T15:41:38.402Z,25.60
2019-03-23T15:44:10.871Z,26.10
2019-03-23T15:46:42.721Z,26.60
2019-03-23T15:49:13.952Z,26.90
2019-03-23T15:51:47.287Z,27.10
2019-03-23T15:54:18.330Z,27.40
2019-03-23T15:56:53.328Z,27.70
2019-03-23T15:59:24.146Z,27.70
2019-03-23T16:01:55.278Z,28.30
2019-03-23T16:04:26.218Z,28.70
2019-03-23T16:06:57.572Z,29.00
2019-03-23T16:09:28.803Z,29.20
2019-03-23T16:11:59.769Z,29.50
2019-03-23T16:14:30.870Z,29.50
2019-03-23T16:17:01.706Z,29.60
2019-03-23T16:19:34.931Z,29.80
2019-03-23T16:22:05.792Z,29.90
2019-03-23T16:24:36.604Z,30.00
2019-03-23T16:27:07.422Z,30.00
2019-03-23T16:29:38.284Z,30.30
2019-03-23T16:32:09.122Z,30.50
2019-03-23T16:34:39.937Z,30.70
2019-03-23T16:37:11.352Z,31.40
2019-03-23T16:39:42.192Z,31.60
2019-03-23T16:42:14.165Z,31.60
2019-03-23T16:44:48.536Z,31.60
2019-03-23T16:47:19.709Z,31.60
2019-03-23T16:49:50.557Z,31.80
2019-03-23T16:52:21.559Z,31.90
2019-03-23T16:54:53.399Z,32.10
2019-03-23T16:57:24.394Z,32.10
2019-03-23T16:59:55.323Z,32.10
2019-03-23T17:02:26.141Z,32.40
2019-03-23T17:04:56.958Z,32.70
2019-03-23T17:07:27.786Z,32.90
2019-03-23T17:09:58.542Z,33.00
2019-03-23T17:12:29.363Z,33.20
2019-03-23T17:15:00.347Z,33.40
2019-03-23T17:17:31.208Z,33.60
2019-03-23T17:20:02.026Z,33.90
2019-03-23T17:22:32.903Z,34.00
2019-03-23T17:25:04.901Z,34.30
2019-03-23T17:27:36.862Z,34.60
2019-03-23T17:30:07.705Z,34.80
2019-03-23T17:32:38.916Z,35.00
2019-03-23T17:35:09.774Z,35.30
2019-03-23T17:37:40.699Z,35.40
2019-03-23T17:40:11.574Z,35.70
2019-03-23T17:42:42.469Z,35.80
2019-03-23T17:45:13.385Z,35.90
2019-03-23T17:47:49.276Z,36.00
2019-03-23T17:50:23.593Z,36.00
2019-03-23T17:52:55.534Z,36.10
2019-03-23T17:55:26.297Z,36.40
2019-03-23T17:58:02.932Z,36.40
2019-03-23T18:00:40.243Z,36.50
2019-03-23T18:03:11.333Z,36.60
2019-03-23T18:05:42.614Z,36.70
2019-03-23T18:08:13.591Z,36.90
2019-03-23T18:10:44.785Z,37.10
2019-03-23T18:13:16.708Z,37.10
2019-03-23T18:15:47.795Z,37.10
2019-03-23T18:18:18.735Z,37.40
2019-03-23T18:20:49.666Z,37.50
2019-03-23T18:23:20.569Z,37.70
2019-03-23T18:25:51.461Z,37.90
2019-03-23T18:28:22.460Z,38.00
2019-03-23T18:30:56.434Z,38.20
2019-03-23T18:33:28.719Z,38.70
2019-03-23T18:35:59.999Z,38.70
2019-03-23T18:38:30.755Z,38.80
2019-03-23T18:41:01.614Z,39.90
2019-03-23T18:43:32.460Z,39.50
2019-03-23T18:46:03.765Z,39.30
2019-03-23T18:48:34.673Z,39.40
2019-03-23T18:51:05.466Z,39.60
2019-03-23T18:53:36.349Z,39.90
2019-03-23T18:56:07.162Z,39.70
2019-03-23T18:58:38.097Z,39.50
2019-03-23T19:01:08.897Z,39.60
2019-03-23T19:03:40.482Z,39.60
2019-03-23T19:06:11.334Z,39.70
2019-03-23T19:08:42.308Z,39.80
2019-03-23T19:11:14.933Z,40.00
2019-03-23T19:13:45.720Z,40.00
2019-03-23T19:16:16.504Z,40.00
2019-03-23T19:18:49.211Z,40.10
2019-03-23T19:21:19.801Z,40.40
2019-03-23T19:23:50.619Z,40.60
2019-03-23T19:26:21.374Z,40.90
2019-03-23T19:28:52.265Z,41.00
2019-03-23T19:31:23.115Z,40.90
2019-03-23T19:33:53.992Z,41.10
2019-03-23T19:36:24.818Z,41.20
2019-03-23T19:38:55.558Z,41.10
2019-03-23T19:41:26.410Z,41.40
2019-03-23T19:43:57.127Z,41.60
2019-03-23T19:46:27.954Z,41.70
2019-03-23T19:48:58.874Z,42.00
2019-03-23T19:51:29.670Z,42.10
2019-03-23T19:54:00.569Z,42.10
2019-03-23T19:56:31.394Z,42.30
2019-03-23T19:59:02.253Z,42.30
2019-03-23T20:01:33.131Z,42.10
2019-03-23T20:04:04.038Z,42.00
2019-03-23T20:06:34.849Z,42.00
2019-03-23T20:09:07.786Z,42.00
2019-03-23T20:11:38.655Z,42.10
2019-03-23T20:14:09.505Z,42.00
2019-03-23T20:16:40.343Z,41.90
2019-03-23T20:19:11.152Z,41.90
2019-03-23T20:21:41.932Z,42.00
2019-03-23T20:24:12.799Z,42.10
2019-03-23T20:26:43.653Z,42.20
2019-03-23T20:29:14.456Z,42.30
2019-03-23T20:31:45.623Z,42.30
2019-03-23T20:34:17.652Z,42.50
2019-03-23T20:36:48.584Z,42.80
2019-03-23T20:39:19.469Z,42.90
2019-03-23T20:41:50.257Z,43.10
2019-03-23T20:44:25.205Z,43.10
2019-03-23T20:46:55.972Z,43.50
2019-03-23T20:49:26.853Z,43.40
2019-03-23T20:51:57.717Z,43.50
2019-03-23T20:54:28.661Z,43.60
2019-03-23T20:56:59.456Z,43.60
2019-03-23T20:59:31.785Z,43.70
2019-03-23T21:02:02.777Z,43.40
2019-03-23T21:04:33.739Z,43.30
2019-03-23T21:07:04.574Z,43.70
2019-03-23T21:09:35.508Z,43.60
2019-03-23T21:12:06.428Z,43.60
2019-03-23T21:14:37.270Z,43.60
2019-03-23T21:17:08.178Z,43.70
2019-03-23T21:19:39.016Z,43.70
2019-03-23T21:22:09.982Z,43.80
2019-03-23T21:24:40.836Z,43.90
2019-03-23T21:27:11.713Z,44.20
2019-03-23T21:29:43.010Z,44.00
2019-03-23T21:32:13.820Z,44.00
2019-03-23T21:34:45.428Z,44.00
2019-03-23T21:37:16.469Z,44.60
2019-03-23T21:39:47.202Z,43.90
2019-03-23T21:42:18.162Z,44.00
2019-03-23T21:45:02.008Z,43.90
2019-03-23T21:47:32.946Z,44.00
2019-03-23T21:50:03.771Z,44.00
2019-03-23T21:52:35.098Z,44.30
2019-03-23T21:55:06.560Z,44.20
2019-03-23T21:57:37.572Z,44.40
2019-03-23T22:00:09.102Z,44.40
2019-03-23T22:02:39.880Z,44.80
2019-03-23T22:05:10.877Z,44.80
2019-03-23T22:07:41.767Z,44.90
2019-03-23T22:10:12.719Z,45.00
2019-03-23T22:12:43.545Z,45.10
2019-03-23T22:15:14.530Z,45.40
2019-03-23T22:17:45.557Z,45.60
2019-03-23T22:20:16.467Z,45.50
2019-03-23T22:22:47.378Z,45.70
2019-03-23T22:25:19.444Z,45.70
2019-03-23T22:27:50.444Z,45.60
2019-03-23T22:30:21.555Z,45.50
2019-03-23T22:32:52.570Z,45.70
2019-03-23T22:35:23.449Z,45.60
2019-03-23T22:37:54.274Z,46.20
2019-03-23T22:40:25.139Z,45.90
2019-03-23T22:42:56.042Z,45.90
2019-03-23T22:45:30.311Z,45.90
2019-03-23T22:48:02.919Z,45.80
2019-03-23T22:50:42.915Z,45.90
2019-03-23T22:53:13.849Z,46.70
2019-03-23T22:55:44.700Z,46.80
2019-03-23T22:58:15.534Z,46.80
2019-03-23T23:00:47.861Z,46.70
2019-03-23T23:03:18.962Z,46.80
2019-03-23T23:05:53.836Z,46.90
2019-03-23T23:08:24.791Z,46.90
2019-03-23T23:10:55.789Z,46.90
2019-03-23T23:13:26.948Z,47.10
2019-03-23T23:15:57.806Z,47.10
2019-03-23T23:18:28.552Z,47.30
2019-03-23T23:20:59.468Z,47.30
2019-03-23T23:23:30.404Z,47.30
2019-03-23T23:26:01.671Z,47.40
2019-03-23T23:28:56.874Z,47.40
2019-03-23T23:31:25.097Z,47.40
2019-03-23T23:33:56.205Z,47.40
2019-03-23T23:36:27.170Z,47.40
2019-03-23T23:38:57.946Z,47.30
2019-03-23T23:41:28.797Z,47.50
2019-03-23T23:44:00.744Z,47.70
2019-03-23T23:46:32.310Z,48.10
2019-03-23T23:49:04.014Z,48.40
2019-03-23T23:51:34.869Z,48.70
2019-03-23T23:54:08.097Z,48.70
2019-03-23T23:56:42.457Z,48.90
2019-03-23T23:59:13.518Z,48.90
